Time;durP1;ratioP1;P1;durP2;ratioP2;P2;SDS_P1;SDS_P2;PMS_P1;PMS_P2;Temp;Humidity;BMP_temperature;BMP_pressure;BME280_temperature;BME280_humidity;BME280_pressure;Samples;Min_cycle;Max_cycle;Signal;HPM_P1;HPM_P2
2021/07/25 00:02:16;;;;;;;37.47;30.73;;;19.20;92.00;;;;;;5034815;28;20109;-76
2021/07/25 00:04:43;;;;;;;40.25;32.45;;;19.20;92.00;;;;;;5018443;28;20057;-77
2021/07/25 00:07:09;;;;;;;37.97;31.42;;;19.20;92.00;;;;;;5018545;28;20029;-76
2021/07/25 00:09:36;;;;;;;39.95;31.23;;;19.20;92.00;;;;;;5018282;28;20033;-76
2021/07/25 00:12:01;;;;;;;37.67;29.30;;;19.20;92.10;;;;;;5018350;28;20064;-77
2021/07/25 00:14:27;;;;;;;40.13;30.23;;;19.20;92.10;;;;;;5018263;28;20057;-76
2021/07/25 00:16:52;;;;;;;38.63;31.58;;;19.10;92.10;;;;;;5034690;28;20033;-76
2021/07/25 00:19:18;;;;;;;39.38;31.25;;;19.10;92.10;;;;;;5018318;28;20083;-76
2021/07/25 00:21:44;;;;;;;39.67;32.25;;;19.10;92.20;;;;;;5017828;28;20079;-76
2021/07/25 00:24:09;;;;;;;40.08;32.53;;;19.10;92.20;;;;;;5017865;28;20033;-76
2021/07/25 00:26:44;;;;;;;42.25;33.85;;;19.10;92.20;;;;;;5017957;28;20033;-80
2021/07/25 00:29:10;;;;;;;42.45;32.58;;;19.10;92.50;;;;;;5034295;28;20026;-80
2021/07/25 00:31:37;;;;;;;39.10;31.55;;;19.10;92.20;;;;;;5034386;28;20025;-81
2021/07/25 00:34:03;;;;;;;39.42;32.83;;;19.10;92.30;;;;;;5034211;28;20500;-76
2021/07/25 00:36:28;;;;;;;41.60;32.17;;;19.10;92.30;;;;;;5035497;28;20021;-76
2021/07/25 00:38:54;;;;;;;46.47;32.47;;;19.10;92.30;;;;;;5034137;28;20469;-76
2021/07/25 00:41:20;;;;;;;41.00;32.03;;;19.10;92.40;;;;;;5017528;28;20390;-76
2021/07/25 00:43:46;;;;;;;39.92;33.40;;;19.10;92.40;;;;;;5033894;28;20072;-76
2021/07/25 00:46:14;;;;;;;44.55;33.20;;;19.00;92.40;;;;;;5034982;28;20026;-76
2021/07/25 00:48:40;;;;;;;43.42;35.20;;;19.00;92.50;;;;;;5034317;28;20034;-76
2021/07/25 00:51:06;;;;;;;42.72;34.13;;;19.00;92.50;;;;;;5017450;28;20037;-76
2021/07/25 00:53:37;;;;;;;42.95;34.47;;;18.90;92.60;;;;;;5033899;28;20025;-76
2021/07/25 00:56:04;;;;;;;45.78;36.67;;;18.90;92.60;;;;;;5033847;28;20120;-76
2021/07/25 00:58:31;;;;;;;46.63;35.53;;;19.00;92.70;;;;;;5017623;28;20036;-76
2021/07/25 01:00:57;;;;;;;41.78;36.15;;;19.00;92.70;;;;;;5033784;28;20030;-76
2021/07/25 01:04:02;;;;;;;43.70;34.95;;;18.90;92.70;;;;;;5033196;28;20449;-76
2021/07/25 01:06:55;;;;;;;41.80;32.70;;;18.90;92.70;;;;;;5039994;28;20041;-76
2021/07/25 01:09:34;;;;;;;44.63;33.30;;;19.00;92.80;;;;;;5033655;28;20047;-77
2021/07/25 01:12:06;;;;;;;44.85;33.25;;;18.90;92.70;;;;;;5033729;28;20022;-76
2021/07/25 01:14:38;;;;;;;42.63;32.67;;;18.90;92.80;;;;;;5017113;28;20084;-76
2021/07/25 01:17:22;;;;;;;40.55;32.97;;;18.90;92.80;;;;;;5033338;28;20021;-76
2021/07/25 01:19:49;;;;;;;40.00;33.45;;;18.90;92.80;;;;;;5033422;28;20027;-76
2021/07/25 01:22:15;;;;;;;45.78;35.22;;;18.90;92.80;;;;;;5033528;28;20045;-76
2021/07/25 01:24:41;;;;;;;45.00;36.47;;;18.90;92.80;;;;;;5033198;28;20045;-76
2021/07/25 01:27:10;;;;;;;38.53;33.08;;;18.90;92.90;;;;;;5034306;28;20354;-76
2021/07/25 01:29:40;;;;;;;43.53;33.45;;;18.90;92.90;;;;;;5017147;28;20060;-76
2021/07/25 01:32:07;;;;;;;42.67;35.00;;;18.90;92.90;;;;;;5033240;28;20415;-76
2021/07/25 01:34:34;;;;;;;42.47;33.50;;;18.90;92.90;;;;;;5034480;28;20037;-76
2021/07/25 01:37:01;;;;;;;47.70;35.60;;;18.90;92.90;;;;;;5033050;28;20028;-76
2021/07/25 01:39:27;;;;;;;41.75;34.70;;;18.90;92.90;;;;;;5016453;28;20034;-76
2021/07/25 01:41:53;;;;;;;42.10;35.25;;;18.90;92.90;;;;;;5015794;28;20030;-76
2021/07/25 01:44:19;;;;;;;42.60;34.55;;;18.90;93.00;;;;;;5033020;28;20540;-76
2021/07/25 01:46:45;;;;;;;42.22;34.15;;;18.80;93.00;;;;;;5032947;28;20500;-76
2021/07/25 01:49:11;;;;;;;42.42;34.10;;;18.80;93.00;;;;;;5016573;28;20055;-76
2021/07/25 01:51:36;;;;;;;42.13;33.53;;;18.90;93.00;;;;;;5032724;28;20479;-76
2021/07/25 01:54:03;;;;;;;47.08;35.80;;;18.90;93.00;;;;;;5033752;28;20044;-76
2021/07/25 01:56:29;;;;;;;45.53;36.38;;;18.90;93.00;;;;;;5033798;28;20018;-76
2021/07/25 01:58:56;;;;;;;44.83;37.10;;;18.90;93.00;;;;;;5032655;28;20060;-76
2021/07/25 02:01:22;;;;;;;45.78;35.00;;;18.80;92.90;;;;;;5032841;28;20049;-76
2021/07/25 02:03:48;;;;;;;43.80;35.15;;;18.80;92.90;;;;;;5032484;28;20056;-76
2021/07/25 02:06:14;;;;;;;41.22;33.53;;;18.80;93.00;;;;;;5032754;28;20030;-77
2021/07/25 02:08:40;;;;;;;43.92;32.78;;;18.80;93.00;;;;;;5032415;28;20030;-77
2021/07/25 02:11:08;;;;;;;44.70;35.40;;;18.80;93.00;;;;;;5015815;28;20120;-77
2021/07/25 02:13:34;;;;;;;42.78;32.90;;;18.80;93.00;;;;;;5032444;28;20116;-77
2021/07/25 02:15:59;;;;;;;40.60;33.17;;;18.70;93.00;;;;;;5016262;28;20064;-76
2021/07/25 02:18:25;;;;;;;44.08;34.25;;;18.70;93.10;;;;;;5032424;28;20025;-77
2021/07/25 02:20:51;;;;;;;44.38;35.42;;;18.70;93.10;;;;;;5016254;28;20115;-76
2021/07/25 02:23:17;;;;;;;44.67;36.60;;;18.70;93.20;;;;;;5032777;28;20080;-76
2021/07/25 02:25:43;;;;;;;43.88;33.92;;;18.70;93.20;;;;;;5015784;28;20037;-76
2021/07/25 02:28:08;;;;;;;47.33;34.95;;;18.60;93.20;;;;;;5032563;28;20446;-76
2021/07/25 02:30:34;;;;;;;46.70;37.63;;;18.60;93.20;;;;;;5032287;28;20386;-76
2021/07/25 02:33:01;;;;;;;45.53;36.25;;;18.50;93.20;;;;;;5015799;28;20406;-77
2021/07/25 02:35:27;;;;;;;44.28;33.67;;;18.50;93.30;;;;;;5032057;28;20532;-76
2021/07/25 02:37:52;;;;;;;49.85;37.50;;;18.50;93.40;;;;;;5031531;28;20029;-76
2021/07/25 02:40:18;;;;;;;46.50;36.17;;;18.40;93.40;;;;;;5032894;28;20084;-76
2021/07/25 02:42:44;;;;;;;46.13;36.08;;;18.40;93.50;;;;;;5014834;28;20033;-76
2021/07/25 02:45:10;;;;;;;43.67;33.55;;;18.40;93.50;;;;;;5015392;28;20095;-76
2021/07/25 02:47:36;;;;;;;47.30;37.50;;;18.40;93.60;;;;;;5015160;28;20120;-76
2021/07/25 02:50:01;;;;;;;47.90;37.28;;;18.40;93.60;;;;;;5031903;28;20061;-76
2021/07/25 02:52:27;;;;;;;44.75;35.75;;;18.30;93.60;;;;;;5016708;28;20030;-76
2021/07/25 02:54:53;;;;;;;45.75;34.83;;;18.30;93.60;;;;;;5035816;28;20068;-77
2021/07/25 02:57:18;;;;;;;45.05;35.85;;;18.30;93.70;;;;;;5019510;28;20385;-76
2021/07/25 02:59:44;;;;;;;46.05;36.97;;;18.30;93.70;;;;;;5035615;28;20056;-76
2021/07/25 03:02:10;;;;;;;47.92;36.00;;;18.30;93.80;;;;;;5035767;28;20037;-77
2021/07/25 03:04:36;;;;;;;46.60;35.33;;;18.20;93.80;;;;;;5019221;28;20470;-77
2021/07/25 03:07:02;;;;;;;43.65;35.22;;;18.20;93.80;;;;;;5035689;28;20045;-76
2021/07/25 03:09:28;;;;;;;43.13;34.80;;;18.20;93.90;;;;;;5019207;28;20025;-76
2021/07/25 03:11:53;;;;;;;47.90;37.80;;;18.20;93.90;;;;;;5019051;28;20105;-76
2021/07/25 03:14:19;;;;;;;43.50;35.42;;;18.20;93.90;;;;;;5019111;28;20438;-77
2021/07/25 03:16:46;;;;;;;44.17;34.50;;;18.10;93.90;;;;;;5018959;28;20592;-76
2021/07/25 03:19:11;;;;;;;45.28;35.88;;;18.10;94.00;;;;;;5018987;28;20119;-77
2021/07/25 03:21:37;;;;;;;50.08;36.80;;;18.10;94.00;;;;;;5018895;28;20077;-76
2021/07/25 03:24:03;;;;;;;46.67;36.20;;;18.10;94.00;;;;;;5036539;28;20026;-76
2021/07/25 03:26:29;;;;;;;48.00;35.05;;;18.10;94.10;;;;;;5018682;28;20515;-76
2021/07/25 03:28:54;;;;;;;44.55;35.38;;;18.00;94.10;;;;;;5035071;28;20037;-77
2021/07/25 03:31:20;;;;;;;45.67;34.92;;;18.00;94.10;;;;;;5035151;28;20033;-76
2021/07/25 03:33:46;;;;;;;43.47;35.25;;;18.00;94.20;;;;;;5035214;28;20075;-77
2021/07/25 03:36:11;;;;;;;44.03;35.03;;;18.00;94.20;;;;;;5018691;28;20030;-76
2021/07/25 03:38:38;;;;;;;47.90;35.20;;;18.00;94.30;;;;;;5018578;28;20034;-76
2021/07/25 03:41:04;;;;;;;44.47;33.22;;;18.00;94.30;;;;;;5018418;28;20021;-77
2021/07/25 03:43:30;;;;;;;45.35;34.97;;;18.10;94.30;;;;;;5034909;28;20053;-76
2021/07/25 03:45:57;;;;;;;42.70;34.40;;;18.00;94.60;;;;;;5018434;28;20021;-76
2021/07/25 03:48:23;;;;;;;46.15;34.78;;;18.10;94.30;;;;;;5033331;28;20109;-76
2021/07/25 03:50:49;;;;;;;44.15;33.90;;;18.10;94.30;;;;;;5017663;28;20397;-77
2021/07/25 03:53:14;;;;;;;44.35;35.20;;;18.00;94.40;;;;;;5017660;28;20025;-76
2021/07/25 03:55:44;;;;;;;44.80;34.70;;;18.00;94.30;;;;;;5036008;28;20029;-76
2021/07/25 03:58:10;;;;;;;42.30;33.90;;;18.00;94.30;;;;;;5034729;28;20022;-76
2021/07/25 04:00:36;;;;;;;41.65;32.72;;;18.00;94.30;;;;;;5019596;28;20048;-76
2021/07/25 04:03:02;;;;;;;39.65;31.88;;;18.00;94.30;;;;;;5052987;28;20482;-77
2021/07/25 04:05:27;;;;;;;38.90;30.98;;;18.00;94.30;;;;;;5052687;28;20045;-76
2021/07/25 04:07:53;;;;;;;44.22;32.20;;;18.00;94.30;;;;;;5035925;28;20053;-76
2021/07/25 04:10:19;;;;;;;38.72;31.17;;;18.00;94.40;;;;;;5035723;28;20021;-77
2021/07/25 04:12:45;;;;;;;42.83;33.10;;;17.90;94.30;;;;;;5035745;28;20134;-77
2021/07/25 04:15:11;;;;;;;40.53;32.13;;;18.00;94.40;;;;;;5052177;28;20124;-77
2021/07/25 04:17:38;;;;;;;39.75;30.70;;;18.00;94.40;;;;;;5035920;28;20029;-77
2021/07/25 04:20:04;;;;;;;42.92;32.25;;;18.00;94.40;;;;;;5052878;28;20078;-77
2021/07/25 04:22:38;;;;;;;42.78;32.00;;;18.00;94.40;;;;;;5037046;28;20029;-76
2021/07/25 04:25:05;;;;;;;37.28;29.80;;;18.00;94.50;;;;;;5055150;28;20154;-76
2021/07/25 04:27:31;;;;;;;39.13;31.23;;;18.00;94.50;;;;;;5053993;28;20017;-76
2021/07/25 04:29:57;;;;;;;42.53;32.42;;;18.00;94.50;;;;;;5053827;28;20410;-77
2021/07/25 04:32:23;;;;;;;44.72;33.08;;;18.00;94.60;;;;;;5054948;28;20040;-76
2021/07/25 04:34:50;;;;;;;42.83;31.15;;;18.00;94.60;;;;;;5037333;28;20024;-77
2021/07/25 04:37:28;;;;;;;36.63;28.90;;;18.10;94.60;;;;;;5046943;28;20112;-77
2021/07/25 04:39:54;;;;;;;37.80;29.08;;;18.10;94.60;;;;;;5032815;28;20034;-77
2021/07/25 04:42:26;;;;;;;34.47;28.80;;;18.10;94.60;;;;;;5015594;28;20120;-76
2021/07/25 04:44:59;;;;;;;34.83;28.92;;;18.10;94.50;;;;;;5015312;28;20033;-76
2021/07/25 04:47:35;;;;;;;38.75;29.77;;;18.20;94.60;;;;;;5031733;28;20461;-77
2021/07/25 04:50:08;;;;;;;37.08;29.50;;;18.20;94.60;;;;;;5031780;28;20053;-76
2021/07/25 04:52:42;;;;;;;33.35;27.40;;;18.20;94.50;;;;;;5032117;28;20045;-76
2021/07/25 04:55:10;;;;;;;33.90;27.70;;;18.30;94.50;;;;;;5015918;28;20078;-76
2021/07/25 04:57:41;;;;;;;34.63;28.45;;;18.30;94.40;;;;;;5034279;28;20047;-76
2021/07/25 05:00:13;;;;;;;32.88;26.83;;;18.30;94.30;;;;;;5033570;28;20036;-76
2021/07/25 05:02:40;;;;;;;33.08;26.80;;;18.30;94.30;;;;;;5034717;28;20021;-76
2021/07/25 05:05:07;;;;;;;34.63;26.38;;;18.20;94.30;;;;;;5016909;28;20409;-77
2021/07/25 05:07:42;;;;;;;30.45;23.42;;;18.20;94.20;;;;;;5017123;28;20362;-76
2021/07/25 05:10:09;;;;;;;29.92;23.80;;;18.20;94.20;;;;;;5017299;28;20025;-76
2021/07/25 05:12:39;;;;;;;29.92;23.70;;;18.20;94.20;;;;;;5033185;28;20026;-76
2021/07/25 05:15:16;;;;;;;31.63;24.83;;;18.20;94.20;;;;;;5033023;28;20025;-76
2021/07/25 05:18:02;;;;;;;29.65;23.50;;;18.20;94.20;;;;;;5032736;28;20025;-76
2021/07/25 05:20:56;;;;;;;28.98;22.63;;;18.20;94.20;;;;;;5034340;28;20029;-76
2021/07/25 05:23:51;;;;;;;27.80;22.60;;;18.20;94.20;;;;;;5032753;28;20037;-76
2021/07/25 05:26:21;;;;;;;;;;;18.20;94.10;;;;;;5033103;28;20107;-76
2021/07/25 05:28:47;;;;;;;26.85;21.05;;;18.30;94.10;;;;;;5033059;28;19905;-76
2021/07/25 05:31:14;;;;;;;26.65;19.98;;;18.30;94.10;;;;;;5032875;28;20014;-76
2021/07/25 05:33:39;;;;;;;26.52;20.88;;;18.30;94.10;;;;;;5016561;28;20021;-77
2021/07/25 05:36:05;;;;;;;26.45;20.05;;;18.30;94.30;;;;;;5033131;28;20557;-76
2021/07/25 05:38:31;;;;;;;31.48;21.30;;;18.40;94.10;;;;;;5016320;28;20034;-76
2021/07/25 05:40:56;;;;;;;23.25;18.45;;;18.50;94.30;;;;;;5033003;28;20033;-76
2021/07/25 05:43:22;;;;;;;24.88;17.63;;;18.60;94.00;;;;;;5016140;28;20032;-77
2021/07/25 05:45:47;;;;;;;23.60;18.17;;;18.70;94.00;;;;;;5034007;28;20064;-76
2021/07/25 05:48:13;;;;;;;22.50;16.83;;;18.70;93.90;;;;;;5016170;28;20041;-76
2021/07/25 05:50:39;;;;;;;20.88;15.57;;;18.80;93.80;;;;;;5016268;28;20557;-76
2021/07/25 05:53:04;;;;;;;18.70;15.43;;;18.90;93.70;;;;;;5032639;28;20044;-76
2021/07/25 05:55:33;;;;;;;20.33;16.55;;;19.00;93.60;;;;;;5016296;28;20508;-77
2021/07/25 05:57:59;;;;;;;21.58;14.13;;;19.10;93.50;;;;;;5032536;28;20018;-76
2021/07/25 06:00:25;;;;;;;19.02;15.68;;;19.10;93.30;;;;;;5032383;28;20041;-76
2021/07/25 06:02:59;;;;;;;19.30;14.00;;;19.20;93.20;;;;;;5015923;28;20379;-77
2021/07/25 06:05:27;;;;;;;16.23;13.63;;;19.30;93.10;;;;;;5032027;28;20493;-76
2021/07/25 06:07:54;;;;;;;22.90;14.35;;;19.30;93.00;;;;;;5016221;28;20386;-76
2021/07/25 06:10:21;;;;;;;18.90;12.13;;;19.40;92.70;;;;;;5025287;28;20023;-77
2021/07/25 06:12:47;;;;;;;17.38;13.32;;;19.50;92.70;;;;;;5049164;28;20052;-76
2021/07/25 06:15:13;;;;;;;21.77;12.52;;;19.50;92.40;;;;;;5016035;28;20474;-76
2021/07/25 06:17:38;;;;;;;16.27;11.80;;;19.50;92.20;;;;;;5032524;28;20424;-76
2021/07/25 06:20:05;;;;;;;15.77;12.35;;;19.60;92.10;;;;;;4999533;28;20017;-76
2021/07/25 06:22:38;;;;;;;15.18;10.50;;;19.60;92.00;;;;;;5032177;28;20025;-76
2021/07/25 06:25:04;;;;;;;15.67;10.73;;;19.70;91.90;;;;;;5033675;28;20052;-76
2021/07/25 06:27:30;;;;;;;14.90;10.73;;;19.70;91.80;;;;;;5015879;28;20028;-76
2021/07/25 06:29:55;;;;;;;14.27;10.20;;;19.70;91.70;;;;;;4999348;28;20025;-76
2021/07/25 06:32:21;;;;;;;15.45;10.05;;;19.80;91.70;;;;;;5032281;28;20025;-75
2021/07/25 06:34:47;;;;;;;13.95;10.82;;;19.80;91.60;;;;;;5015874;28;20043;-75
2021/07/25 06:37:12;;;;;;;12.45;9.40;;;19.90;91.40;;;;;;5015687;28;20021;-75
2021/07/25 06:39:38;;;;;;;13.60;9.80;;;19.90;91.40;;;;;;5032150;28;20745;-75
2021/07/25 06:42:03;;;;;;;18.25;11.43;;;20.00;91.30;;;;;;5031991;28;20034;-76
2021/07/25 06:44:29;;;;;;;13.95;10.35;;;20.00;91.10;;;;;;5015643;28;20033;-75
2021/07/25 06:46:55;;;;;;;13.07;10.00;;;20.00;91.00;;;;;;5015627;28;20037;-75
2021/07/25 06:49:20;;;;;;;14.43;9.18;;;20.00;91.00;;;;;;5033153;28;20029;-75
2021/07/25 06:51:46;;;;;;;12.75;9.25;;;20.00;91.00;;;;;;5031989;28;20040;-79
2021/07/25 06:54:11;;;;;;;12.90;8.88;;;19.90;90.80;;;;;;4999130;28;20477;-79
2021/07/25 06:56:37;;;;;;;14.27;9.98;;;19.90;91.10;;;;;;4999538;28;20029;-79
2021/07/25 06:59:03;;;;;;;14.30;9.63;;;19.90;90.70;;;;;;5032041;28;20053;-80
2021/07/25 07:01:28;;;;;;;12.63;9.63;;;19.90;90.70;;;;;;5031997;28;20029;-79
2021/07/25 07:03:54;;;;;;;13.60;8.48;;;19.90;90.60;;;;;;5015266;28;20120;-79
2021/07/25 07:06:20;;;;;;;14.05;9.45;;;19.90;90.60;;;;;;5015431;28;20034;-78
2021/07/25 07:08:45;;;;;;;14.88;9.70;;;19.90;90.70;;;;;;5031855;28;20026;-77
2021/07/25 07:11:11;;;;;;;14.48;9.93;;;19.90;90.60;;;;;;4998864;28;20033;-75
2021/07/25 07:13:36;;;;;;;11.80;8.15;;;19.90;90.60;;;;;;5031539;28;20026;-76
2021/07/25 07:16:02;;;;;;;16.70;8.90;;;19.90;90.70;;;;;;5031548;28;20474;-75
2021/07/25 07:18:28;;;;;;;16.67;8.43;;;19.90;90.60;;;;;;4998777;28;20393;-75
2021/07/25 07:20:54;;;;;;;15.10;9.63;;;19.90;90.60;;;;;;5014758;28;20496;-76
2021/07/25 07:23:24;;;;;;;12.13;8.52;;;19.90;90.60;;;;;;4998842;28;20094;-75
2021/07/25 07:25:52;;;;;;;15.57;8.32;;;20.00;90.60;;;;;;5031644;28;20037;-75
2021/07/25 07:28:19;;;;;;;13.23;8.85;;;20.00;90.60;;;;;;5015394;28;20029;-75
2021/07/25 07:30:47;;;;;;;11.80;7.57;;;20.10;90.60;;;;;;5031614;28;20029;-75
2021/07/25 07:33:18;;;;;;;12.25;8.57;;;20.10;90.60;;;;;;4999275;28;20025;-75
2021/07/25 07:35:45;;;;;;;10.85;7.90;;;20.10;90.50;;;;;;5032724;28;20028;-75
2021/07/25 07:38:12;;;;;;;11.48;8.80;;;20.20;90.50;;;;;;5031488;28;20021;-76
2021/07/25 07:40:39;;;;;;;11.35;8.48;;;20.20;90.50;;;;;;5034528;28;20041;-75
2021/07/25 07:43:07;;;;;;;13.48;8.07;;;20.20;90.80;;;;;;5034906;28;20025;-75
2021/07/25 07:45:33;;;;;;;13.73;8.98;;;20.30;90.50;;;;;;5036133;28;20026;-75
2021/07/25 07:47:58;;;;;;;9.63;7.00;;;20.40;90.40;;;;;;5018795;28;20381;-74
2021/07/25 07:50:24;;;;;;;12.77;6.75;;;20.50;90.40;;;;;;5035409;28;20116;-75
2021/07/25 07:52:50;;;;;;;11.07;7.40;;;20.50;90.30;;;;;;5002232;28;20053;-75
2021/07/25 07:55:16;;;;;;;12.25;7.55;;;20.50;90.20;;;;;;5034851;28;20021;-75
2021/07/25 07:57:42;;;;;;;10.90;6.78;;;20.60;90.20;;;;;;5018591;28;20120;-75
2021/07/25 08:00:08;;;;;;;10.93;7.57;;;20.70;90.10;;;;;;5035024;28;20084;-75
2021/07/25 08:02:35;;;;;;;8.70;6.22;;;20.70;89.80;;;;;;5018529;28;20029;-75
2021/07/25 08:05:02;;;;;;;9.65;6.43;;;20.80;89.60;;;;;;5018490;28;20049;-75
2021/07/25 08:07:28;;;;;;;10.48;7.05;;;20.80;89.40;;;;;;5018782;28;20095;-75
2021/07/25 08:09:54;;;;;;;10.13;6.50;;;20.90;89.20;;;;;;5034971;28;20052;-75
2021/07/25 08:12:19;;;;;;;9.48;5.78;;;20.90;89.10;;;;;;5035081;28;20036;-74
2021/07/25 08:14:45;;;;;;;9.95;6.30;;;21.00;88.80;;;;;;5018644;28;20029;-75
2021/07/25 08:17:11;;;;;;;11.60;7.05;;;21.10;88.80;;;;;;5034724;28;20041;-75
2021/07/25 08:19:36;;;;;;;12.48;6.88;;;21.10;88.50;;;;;;5001717;28;20377;-75
2021/07/25 08:22:03;;;;;;;11.35;7.30;;;21.20;88.30;;;;;;5037189;28;20059;-79
2021/07/25 08:24:29;;;;;;;8.35;6.40;;;21.20;88.20;;;;;;5053933;28;20539;-79
2021/07/25 08:26:54;;;;;;;9.73;6.43;;;21.30;88.30;;;;;;5054113;28;20100;-79
2021/07/25 08:29:20;;;;;;;11.10;6.57;;;21.40;88.30;;;;;;5053981;28;20109;-79
2021/07/25 08:31:46;;;;;;;12.63;5.82;;;21.60;88.30;;;;;;5054094;28;20052;-78
2021/07/25 08:34:11;;;;;;;9.75;5.88;;;21.70;87.90;;;;;;5037499;28;20087;-78
2021/07/25 08:36:37;;;;;;;10.00;6.45;;;21.90;87.10;;;;;;5037451;28;20032;-79
2021/07/25 08:39:03;;;;;;;9.65;6.78;;;22.00;86.70;;;;;;5055074;28;20044;-77
2021/07/25 08:41:52;;;;;;;9.55;5.57;;;22.20;86.20;;;;;;5052333;28;20055;-78
2021/07/25 08:44:27;;;;;;;8.75;6.60;;;22.20;85.30;;;;;;5041783;28;20084;-79
2021/07/25 08:46:56;;;;;;;9.40;6.07;;;22.30;84.90;;;;;;5033704;28;20495;-79
2021/07/25 08:49:42;;;;;;;9.57;6.70;;;22.30;84.70;;;;;;5035149;28;20412;-76
2021/07/25 08:52:15;;;;;;;9.18;6.05;;;22.30;84.30;;;;;;5034005;28;20025;-76
2021/07/25 08:54:42;;;;;;;10.88;6.95;;;22.40;84.40;;;;;;5033817;28;20025;-76
2021/07/25 08:57:16;;;;;;;10.40;6.82;;;22.40;84.00;;;;;;5035299;28;20040;-76
2021/07/25 08:59:43;;;;;;;8.95;6.20;;;22.40;83.60;;;;;;5033572;28;20021;-75
2021/07/25 09:02:20;;;;;;;8.10;6.05;;;22.50;83.70;;;;;;5033973;28;20034;-76
2021/07/25 09:04:47;;;;;;;9.82;6.65;;;22.60;83.70;;;;;;5034717;28;20041;-76
2021/07/25 09:07:14;;;;;;;9.50;6.30;;;22.60;83.60;;;;;;5017404;28;20071;-76
2021/07/25 09:09:41;;;;;;;11.23;7.13;;;22.70;83.40;;;;;;5017530;28;20036;-75
2021/07/25 09:12:08;;;;;;;9.10;6.22;;;22.80;83.10;;;;;;5033642;28;20022;-75
2021/07/25 09:14:33;;;;;;;7.47;5.57;;;22.90;82.70;;;;;;5017174;28;20033;-75
2021/07/25 09:16:59;;;;;;;10.18;5.28;;;22.90;82.30;;;;;;5035004;28;20034;-75
2021/07/25 09:19:25;;;;;;;9.35;5.97;;;23.00;82.00;;;;;;5033907;28;20382;-75
2021/07/25 09:21:51;;;;;;;10.23;5.90;;;23.10;81.40;;;;;;5033548;28;20032;-75
2021/07/25 09:24:28;;;;;;;8.95;5.88;;;23.20;81.30;;;;;;5033808;28;20481;-73
2021/07/25 09:27:06;;;;;;;8.90;5.70;;;23.30;81.00;;;;;;5034448;28;20044;-75
2021/07/25 09:29:36;;;;;;;7.63;4.65;;;23.40;80.80;;;;;;5033096;28;20022;-75
2021/07/25 09:32:12;;;;;;;8.70;5.43;;;23.40;79.80;;;;;;5033173;28;20087;-75
2021/07/25 09:34:43;;;;;;;8.25;5.32;;;23.50;79.20;;;;;;5033218;28;20099;-75
2021/07/25 09:37:15;;;;;;;7.60;5.30;;;23.60;78.60;;;;;;5016435;28;20053;-76
2021/07/25 09:39:44;;;;;;;7.87;5.43;;;23.60;78.20;;;;;;5032809;28;20564;-74
2021/07/25 09:42:11;;;;;;;8.55;5.43;;;23.70;77.80;;;;;;5034171;28;20338;-75
2021/07/25 09:45:03;;;;;;;9.15;5.85;;;23.80;77.60;;;;;;5034204;28;20456;-74
2021/07/25 09:47:39;;;;;;;10.43;5.60;;;23.90;76.80;;;;;;5032706;28;20040;-75
2021/07/25 09:50:06;;;;;;;9.85;5.72;;;23.90;76.80;;;;;;5033987;28;20096;-75
2021/07/25 09:52:39;;;;;;;8.93;5.40;;;24.00;76.10;;;;;;5032912;28;20430;-75
2021/07/25 09:55:07;;;;;;;7.07;4.95;;;24.00;75.70;;;;;;5034361;28;20134;-75
2021/07/25 09:57:36;;;;;;;8.20;5.00;;;24.10;74.80;;;;;;5033827;28;20151;-74
2021/07/25 10:00:11;;;;;;;12.07;6.50;;;24.10;74.90;;;;;;5000693;28;20531;-75
2021/07/25 10:02:38;;;;;;;12.82;6.47;;;24.10;74.60;;;;;;5033483;28;20119;-79
2021/07/25 10:05:18;;;;;;;9.75;5.63;;;24.10;74.00;;;;;;5032671;28;20041;-78
2021/07/25 10:07:48;;;;;;;6.80;4.40;;;24.20;73.60;;;;;;5034029;28;20033;-78
2021/07/25 10:10:16;;;;;;;8.40;4.90;;;24.30;73.30;;;;;;5033734;28;20036;-78
2021/07/25 10:12:44;;;;;;;7.78;4.50;;;24.50;72.90;;;;;;5016494;28;20037;-78
2021/07/25 10:15:12;;;;;;;7.40;3.88;;;24.60;72.40;;;;;;5032409;28;20025;-79
2021/07/25 10:17:40;;;;;;;9.07;4.40;;;24.80;72.10;;;;;;5037837;28;20031;-78
2021/07/25 10:20:08;;;;;;;9.15;4.90;;;25.00;70.80;;;;;;5032292;28;20025;-78
2021/07/25 10:22:35;;;;;;;7.25;4.55;;;25.10;70.50;;;;;;5033233;28;20060;-79
2021/07/25 10:25:04;;;;;;;9.05;5.50;;;25.30;70.20;;;;;;5032076;28;20032;-79
2021/07/25 10:27:31;;;;;;;7.15;4.93;;;25.40;69.90;;;;;;5032200;28;20048;-79
2021/07/25 10:30:02;;;;;;;9.48;5.55;;;25.60;70.00;;;;;;5016107;28;20032;-78
2021/07/25 10:32:31;;;;;;;7.68;5.25;;;25.70;68.90;;;;;;5033296;28;20486;-79
2021/07/25 10:35:00;;;;;;;6.90;3.95;;;25.80;69.70;;;;;;5032061;28;20032;-79
2021/07/25 10:37:27;;;;;;;7.75;4.78;;;26.10;68.80;;;;;;5033252;28;20504;-79
2021/07/25 10:39:55;;;;;;;7.20;3.95;;;26.30;67.80;;;;;;5031918;28;20504;-78
2021/07/25 10:42:26;;;;;;;8.38;4.25;;;26.60;67.70;;;;;;5033531;28;20108;-78
2021/07/25 10:44:52;;;;;;;7.13;4.15;;;26.90;66.40;;;;;;5032077;28;20029;-78
2021/07/25 10:47:25;;;;;;;6.30;3.65;;;27.20;65.60;;;;;;5033218;28;20071;-78
2021/07/25 10:50:07;;;;;;;8.32;4.03;;;27.10;64.90;;;;;;5032129;28;20053;-77
2021/07/25 10:53:00;;;;;;;8.83;4.47;;;26.90;64.40;;;;;;5000497;28;20021;-79
2021/07/25 10:55:34;;;;;;;8.23;5.05;;;26.80;64.20;;;;;;5033043;28;20021;-78
2021/07/25 10:58:08;;;;;;;8.70;5.22;;;26.50;64.00;;;;;;5033115;28;20029;-78
2021/07/25 11:00:42;;;;;;;7.18;4.43;;;26.40;64.30;;;;;;5031862;28;20022;-79
2021/07/25 11:03:10;;;;;;;8.52;4.57;;;26.30;64.70;;;;;;5031682;28;20124;-79
2021/07/25 11:08:43;;;;;;;8.23;4.70;;;26.30;65.30;;;;;;5032924;28;20033;-77
2021/07/25 11:11:36;;;;;;;7.47;3.92;;;26.80;65.70;;;;;;5015859;28;20032;-79
2021/07/25 11:14:07;;;;;;;6.75;3.97;;;27.70;65.50;;;;;;5033609;28;20040;-79
2021/07/25 11:16:32;;;;;;;5.30;3.30;;;28.60;65.00;;;;;;5035641;28;20025;-77
2021/07/25 11:19:21;;;;;;;6.07;3.30;;;29.10;63.90;;;;;;5035476;28;20452;-77
2021/07/25 11:21:55;;;;;;;7.57;4.00;;;29.50;61.70;;;;;;5034996;28;20034;-78
2021/07/25 11:24:26;;;;;;;5.30;3.70;;;30.00;61.40;;;;;;5036453;28;20617;-77
2021/07/25 11:26:53;;;;;;;5.75;3.45;;;30.60;60.10;;;;;;5036635;28;20491;-77
2021/07/25 11:29:40;;;;;;;4.65;3.35;;;31.00;59.30;;;;;;5036591;28;20025;-77
2021/07/25 11:32:38;;;;;;;7.70;3.72;;;31.30;56.80;;;;;;5036446;28;20017;-78
2021/07/25 11:35:06;;;;;;;6.32;3.47;;;31.20;55.60;;;;;;5039738;28;20478;-76
2021/07/25 11:37:40;;;;;;;7.40;3.35;;;31.00;55.20;;;;;;5039778;28;20489;-77
2021/07/25 11:40:09;;;;;;;5.97;3.40;;;30.70;54.30;;;;;;5042944;28;20038;-77
2021/07/25 11:42:36;;;;;;;5.85;3.10;;;30.40;54.30;;;;;;5039430;28;20112;-78
2021/07/25 11:45:06;;;;;;;5.70;3.33;;;30.10;54.30;;;;;;5035934;28;20041;-78
2021/07/25 11:47:33;;;;;;;6.20;4.05;;;30.00;54.80;;;;;;5036261;28;20060;-78
2021/07/25 11:49:59;;;;;;;6.82;2.97;;;30.10;54.60;;;;;;5035061;28;20500;-77
2021/07/25 11:52:27;;;;;;;6.47;3.03;;;30.10;54.20;;;;;;5018463;28;20029;-78
2021/07/25 11:54:53;;;;;;;5.15;3.13;;;30.50;54.60;;;;;;5036064;28;20104;-79
2021/07/25 11:57:27;;;;;;;4.07;2.50;;;31.10;54.70;;;;;;5036042;28;20117;-78
2021/07/25 12:00:01;;;;;;;4.97;2.90;;;32.00;53.60;;;;;;5035956;28;20026;-78
2021/07/25 12:02:29;;;;;;;6.50;2.75;;;32.50;52.40;;;;;;5035924;28;20116;-79
2021/07/25 12:04:56;;;;;;;5.38;2.35;;;32.50;51.60;;;;;;5034225;28;20068;-78
2021/07/25 12:07:31;;;;;;;6.38;2.33;;;32.40;51.10;;;;;;5017603;28;20021;-79
2021/07/25 12:09:56;;;;;;;4.75;2.70;;;32.50;51.40;;;;;;5035792;28;20032;-80
2021/07/25 12:12:24;;;;;;;5.50;2.67;;;33.20;50.80;;;;;;5034531;28;20025;-79
2021/07/25 12:14:56;;;;;;;6.38;2.97;;;33.90;49.80;;;;;;5035584;28;20044;-78
2021/07/25 12:17:50;;;;;;;3.97;2.35;;;34.50;48.70;;;;;;5034425;28;20104;-79
2021/07/25 12:20:28;;;;;;;5.25;2.20;;;35.00;47.60;;;;;;5035662;28;20021;-79
2021/07/25 12:23:05;;;;;;;4.28;2.50;;;35.00;47.30;;;;;;5035565;28;20078;-78
2021/07/25 12:25:51;;;;;;;4.32;2.15;;;34.60;46.30;;;;;;5035135;28;20030;-78
2021/07/25 12:28:21;;;;;;;4.88;2.15;;;34.10;45.90;;;;;;5035749;28;20028;-77
2021/07/25 12:30:56;;;;;;;3.88;2.10;;;33.40;46.30;;;;;;5035447;28;20029;-78
2021/07/25 12:33:32;;;;;;;5.47;2.28;;;32.90;46.70;;;;;;5035317;28;20086;-78
2021/07/25 12:36:16;;;;;;;5.85;2.45;;;32.40;47.20;;;;;;5036168;28;20116;-78
2021/07/25 12:38:41;;;;;;;4.45;1.75;;;32.10;48.10;;;;;;5047669;28;20112;-79
2021/07/25 12:41:07;;;;;;;5.10;2.10;;;32.50;48.50;;;;;;5055162;28;20166;-76
2021/07/25 12:43:33;;;;;;;3.42;1.60;;;32.80;48.00;;;;;;5055419;28;20445;-78
2021/07/25 12:46:00;;;;;;;5.38;2.22;;;32.80;47.10;;;;;;5053995;28;20025;-77
2021/07/25 12:48:33;;;;;;;4.78;1.80;;;32.50;46.10;;;;;;5055396;28;20056;-78